sensor_id;sensor_type;location;lat;lon;timestamp;temperature;humidity
19033;DHT22;9649;51.042;13.804;2023-04-08T00:00:50;5.50;99.90
19033;DHT22;9649;51.042;13.804;2023-04-08T00:05:52;5.50;99.90
19033;DHT22;9649;51.042;13.804;2023-04-08T00:10:55;5.60;99.90
19033;DHT22;9649;51.042;13.804;2023-04-08T00:15:59;5.50;99.90
19033;DHT22;9649;51.042;13.804;2023-04-08T00:21:02;5.60;99.90
19033;DHT22;9649;51.042;13.804;2023-04-08T00:26:05;5.70;99.90
19033;DHT22;9649;51.042;13.804;2023-04-08T00:31:09;5.80;99.90
19033;DHT22;9649;51.042;13.804;2023-04-08T00:36:12;5.70;99.90
19033;DHT22;9649;51.042;13.804;2023-04-08T00:41:15;5.70;99.90
19033;DHT22;9649;51.042;13.804;2023-04-08T00:46:19;5.60;99.90
19033;DHT22;9649;51.042;13.804;2023-04-08T00:51:22;5.70;99.90
19033;DHT22;9649;51.042;13.804;2023-04-08T00:56:25;5.70;99.90
19033;DHT22;9649;51.042;13.804;2023-04-08T01:01:33;5.80;99.90
19033;DHT22;9649;51.042;13.804;2023-04-08T01:06:40;5.60;99.90
19033;DHT22;9649;51.042;13.804;2023-04-08T01:11:49;5.60;99.90
19033;DHT22;9649;51.042;13.804;2023-04-08T01:16:55;5.50;99.90
19033;DHT22;9649;51.042;13.804;2023-04-08T01:22:04;5.60;99.90
19033;DHT22;9649;51.042;13.804;2023-04-08T01:27:13;5.70;99.90
19033;DHT22;9649;51.042;13.804;2023-04-08T01:32:16;5.80;99.90
19033;DHT22;9649;51.042;13.804;2023-04-08T01:37:20;5.70;99.90
19033;DHT22;9649;51.042;13.804;2023-04-08T01:42:26;5.70;99.90
19033;DHT22;9649;51.042;13.804;2023-04-08T01:47:30;5.80;99.90
19033;DHT22;9649;51.042;13.804;2023-04-08T01:52:34;5.80;99.90
19033;DHT22;9649;51.042;13.804;2023-04-08T01:57:41;5.70;99.90
19033;DHT22;9649;51.042;13.804;2023-04-08T02:02:46;5.70;99.90
19033;DHT22;9649;51.042;13.804;2023-04-08T02:07:49;5.80;99.90
19033;DHT22;9649;51.042;13.804;2023-04-08T02:12:55;5.90;99.90
19033;DHT22;9649;51.042;13.804;2023-04-08T02:18:04;5.80;99.90
19033;DHT22;9649;51.042;13.804;2023-04-08T02:23:12;5.80;99.90
19033;DHT22;9649;51.042;13.804;2023-04-08T02:28:18;5.80;99.90
19033;DHT22;9649;51.042;13.804;2023-04-08T02:33:22;5.80;99.90
19033;DHT22;9649;51.042;13.804;2023-04-08T02:38:25;5.90;99.90
19033;DHT22;9649;51.042;13.804;2023-04-08T02:43:31;5.90;99.90
19033;DHT22;9649;51.042;13.804;2023-04-08T02:48:34;5.90;99.90
19033;DHT22;9649;51.042;13.804;2023-04-08T02:53:37;5.90;99.90
19033;DHT22;9649;51.042;13.804;2023-04-08T02:58:41;6.00;99.90
19033;DHT22;9649;51.042;13.804;2023-04-08T03:03:43;5.90;99.90
19033;DHT22;9649;51.042;13.804;2023-04-08T03:08:47;6.00;99.90
19033;DHT22;9649;51.042;13.804;2023-04-08T03:13:51;6.00;99.90
19033;DHT22;9649;51.042;13.804;2023-04-08T03:18:54;6.00;99.90
19033;DHT22;9649;51.042;13.804;2023-04-08T03:23:57;6.10;99.90
19033;DHT22;9649;51.042;13.804;2023-04-08T03:29:01;5.90;99.90
19033;DHT22;9649;51.042;13.804;2023-04-08T03:34:03;6.00;99.90
19033;DHT22;9649;51.042;13.804;2023-04-08T03:39:06;6.10;99.90
19033;DHT22;9649;51.042;13.804;2023-04-08T03:44:10;6.10;99.90
19033;DHT22;9649;51.042;13.804;2023-04-08T03:49:13;6.10;99.90
19033;DHT22;9649;51.042;13.804;2023-04-08T03:54:16;6.10;99.90
19033;DHT22;9649;51.042;13.804;2023-04-08T03:59:20;6.10;99.90
19033;DHT22;9649;51.042;13.804;2023-04-08T04:04:23;6.10;99.90
19033;DHT22;9649;51.042;13.804;2023-04-08T04:09:26;6.10;99.90
19033;DHT22;9649;51.042;13.804;2023-04-08T04:14:30;6.10;99.90
19033;DHT22;9649;51.042;13.804;2023-04-08T04:19:33;6.10;99.90
19033;DHT22;9649;51.042;13.804;2023-04-08T04:24:35;6.10;99.90
19033;DHT22;9649;51.042;13.804;2023-04-08T04:29:39;6.10;99.90
19033;DHT22;9649;51.042;13.804;2023-04-08T04:34:42;6.20;99.90
19033;DHT22;9649;51.042;13.804;2023-04-08T04:39:45;6.20;99.90
19033;DHT22;9649;51.042;13.804;2023-04-08T04:44:49;6.20;99.90
19033;DHT22;9649;51.042;13.804;2023-04-08T04:49:51;6.20;99.90
19033;DHT22;9649;51.042;13.804;2023-04-08T04:54:56;6.30;99.90
19033;DHT22;9649;51.042;13.804;2023-04-08T05:00:00;6.30;99.90
19033;DHT22;9649;51.042;13.804;2023-04-08T05:05:06;6.30;99.90
19033;DHT22;9649;51.042;13.804;2023-04-08T05:10:09;6.40;99.90
19033;DHT22;9649;51.042;13.804;2023-04-08T05:15:13;6.30;99.90
19033;DHT22;9649;51.042;13.804;2023-04-08T05:20:18;6.40;99.90
19033;DHT22;9649;51.042;13.804;2023-04-08T05:25:21;6.40;99.90
19033;DHT22;9649;51.042;13.804;2023-04-08T05:30:25;6.50;99.90
19033;DHT22;9649;51.042;13.804;2023-04-08T05:35:28;6.60;99.90
19033;DHT22;9649;51.042;13.804;2023-04-08T05:40:30;6.70;99.90
19033;DHT22;9649;51.042;13.804;2023-04-08T05:45:37;6.80;99.90
19033;DHT22;9649;51.042;13.804;2023-04-08T05:50:41;6.90;99.90
19033;DHT22;9649;51.042;13.804;2023-04-08T05:55:44;7.00;99.90
19033;DHT22;9649;51.042;13.804;2023-04-08T06:00:48;7.20;99.90
19033;DHT22;9649;51.042;13.804;2023-04-08T06:05:51;7.40;99.90
19033;DHT22;9649;51.042;13.804;2023-04-08T06:10:54;7.50;99.90
19033;DHT22;9649;51.042;13.804;2023-04-08T06:15:58;7.40;99.90
19033;DHT22;9649;51.042;13.804;2023-04-08T06:21:11;7.50;99.90
19033;DHT22;9649;51.042;13.804;2023-04-08T06:26:14;7.40;99.90
19033;DHT22;9649;51.042;13.804;2023-04-08T06:31:18;7.80;99.90
19033;DHT22;9649;51.042;13.804;2023-04-08T06:36:21;8.20;99.90
19033;DHT22;9649;51.042;13.804;2023-04-08T06:41:24;8.70;99.90
19033;DHT22;9649;51.042;13.804;2023-04-08T06:46:28;9.00;99.90
19033;DHT22;9649;51.042;13.804;2023-04-08T06:51:30;9.10;99.90
19033;DHT22;9649;51.042;13.804;2023-04-08T06:56:33;9.00;99.90
19033;DHT22;9649;51.042;13.804;2023-04-08T07:01:37;8.90;99.90
19033;DHT22;9649;51.042;13.804;2023-04-08T07:06:40;8.70;99.90
19033;DHT22;9649;51.042;13.804;2023-04-08T07:11:43;8.60;99.90
19033;DHT22;9649;51.042;13.804;2023-04-08T07:16:47;8.50;99.90
19033;DHT22;9649;51.042;13.804;2023-04-08T07:21:50;8.60;99.90
19033;DHT22;9649;51.042;13.804;2023-04-08T07:26:54;8.80;99.90
19033;DHT22;9649;51.042;13.804;2023-04-08T07:31:58;9.20;1.00
19033;DHT22;9649;51.042;13.804;2023-04-08T07:37:01;9.70;1.00
19033;DHT22;9649;51.042;13.804;2023-04-08T07:42:04;10.00;1.00
19033;DHT22;9649;51.042;13.804;2023-04-08T07:47:09;10.00;1.00
19033;DHT22;9649;51.042;13.804;2023-04-08T07:52:12;9.90;1.00
19033;DHT22;9649;51.042;13.804;2023-04-08T07:57:15;9.80;1.00
19033;DHT22;9649;51.042;13.804;2023-04-08T08:02:19;9.60;1.00
19033;DHT22;9649;51.042;13.804;2023-04-08T08:07:21;9.50;1.00
19033;DHT22;9649;51.042;13.804;2023-04-08T08:12:24;9.80;99.90
19033;DHT22;9649;51.042;13.804;2023-04-08T08:17:28;10.00;93.20
19033;DHT22;9649;51.042;13.804;2023-04-08T08:22:34;10.30;1.00
19033;DHT22;9649;51.042;13.804;2023-04-08T08:27:51;10.70;1.00
19033;DHT22;9649;51.042;13.804;2023-04-08T08:32:55;11.00;1.00
19033;DHT22;9649;51.042;13.804;2023-04-08T08:37:59;11.00;99.90
19033;DHT22;9649;51.042;13.804;2023-04-08T08:43:02;11.10;1.00
19033;DHT22;9649;51.042;13.804;2023-04-08T08:48:07;11.20;99.90
19033;DHT22;9649;51.042;13.804;2023-04-08T08:53:10;11.30;1.00
19033;DHT22;9649;51.042;13.804;2023-04-08T08:58:13;11.30;1.00
19033;DHT22;9649;51.042;13.804;2023-04-08T09:03:19;11.40;1.00
19033;DHT22;9649;51.042;13.804;2023-04-08T09:08:24;11.60;68.90
19033;DHT22;9649;51.042;13.804;2023-04-08T09:13:34;11.50;1.00
19033;DHT22;9649;51.042;13.804;2023-04-08T09:18:39;11.80;1.00
19033;DHT22;9649;51.042;13.804;2023-04-08T09:23:46;11.60;1.00
19033;DHT22;9649;51.042;13.804;2023-04-08T09:29:00;11.30;1.00
19033;DHT22;9649;51.042;13.804;2023-04-08T09:34:16;11.60;1.00
19033;DHT22;9649;51.042;13.804;2023-04-08T09:39:21;12.10;1.00
19033;DHT22;9649;51.042;13.804;2023-04-08T09:44:25;12.30;1.00
19033;DHT22;9649;51.042;13.804;2023-04-08T09:49:36;13.20;1.00
19033;DHT22;9649;51.042;13.804;2023-04-08T09:54:43;14.00;1.00
19033;DHT22;9649;51.042;13.804;2023-04-08T09:59:50;13.90;1.00
19033;DHT22;9649;51.042;13.804;2023-04-08T10:04:58;13.00;1.00
19033;DHT22;9649;51.042;13.804;2023-04-08T10:10:02;12.60;99.90
19033;DHT22;9649;51.042;13.804;2023-04-08T10:15:25;12.80;1.00
19033;DHT22;9649;51.042;13.804;2023-04-08T10:20:42;12.40;99.90
19033;DHT22;9649;51.042;13.804;2023-04-08T10:25:46;11.80;1.00
19033;DHT22;9649;51.042;13.804;2023-04-08T10:30:50;11.60;1.00
19033;DHT22;9649;51.042;13.804;2023-04-08T10:35:59;11.90;1.00
19033;DHT22;9649;51.042;13.804;2023-04-08T10:41:03;12.40;1.00
19033;DHT22;9649;51.042;13.804;2023-04-08T10:46:09;12.90;1.00
19033;DHT22;9649;51.042;13.804;2023-04-08T10:51:13;13.20;99.90
19033;DHT22;9649;51.042;13.804;2023-04-08T10:56:16;13.30;99.90
19033;DHT22;9649;51.042;13.804;2023-04-08T11:01:19;13.70;99.90
19033;DHT22;9649;51.042;13.804;2023-04-08T11:06:24;14.30;1.00
19033;DHT22;9649;51.042;13.804;2023-04-08T11:11:27;14.30;1.00
19033;DHT22;9649;51.042;13.804;2023-04-08T11:16:30;13.80;2.80
19033;DHT22;9649;51.042;13.804;2023-04-08T11:21:38;13.10;99.90
19033;DHT22;9649;51.042;13.804;2023-04-08T11:26:41;12.60;1.00
19033;DHT22;9649;51.042;13.804;2023-04-08T11:31:44;11.90;1.00
19033;DHT22;9649;51.042;13.804;2023-04-08T11:36:51;11.60;1.00
19033;DHT22;9649;51.042;13.804;2023-04-08T11:41:54;11.40;1.00
19033;DHT22;9649;51.042;13.804;2023-04-08T11:46:58;11.40;99.90
19033;DHT22;9649;51.042;13.804;2023-04-08T11:52:04;11.70;1.00
19033;DHT22;9649;51.042;13.804;2023-04-08T11:57:06;11.30;99.90
19033;DHT22;9649;51.042;13.804;2023-04-08T12:02:10;10.80;99.90
19033;DHT22;9649;51.042;13.804;2023-04-08T12:07:14;10.80;1.00
19033;DHT22;9649;51.042;13.804;2023-04-08T12:12:18;11.00;1.00
19033;DHT22;9649;51.042;13.804;2023-04-08T12:17:20;12.10;1.00
19033;DHT22;9649;51.042;13.804;2023-04-08T12:22:24;12.70;1.00
19033;DHT22;9649;51.042;13.804;2023-04-08T12:27:27;14.40;1.00
19033;DHT22;9649;51.042;13.804;2023-04-08T12:32:30;16.00;64.10
19033;DHT22;9649;51.042;13.804;2023-04-08T12:37:35;16.30;1.00
19033;DHT22;9649;51.042;13.804;2023-04-08T12:42:38;16.10;1.00
19033;DHT22;9649;51.042;13.804;2023-04-08T12:47:41;17.30;1.00
19033;DHT22;9649;51.042;13.804;2023-04-08T12:52:45;19.50;1.00
19033;DHT22;9649;51.042;13.804;2023-04-08T12:57:47;20.80;1.00
19033;DHT22;9649;51.042;13.804;2023-04-08T13:02:50;20.40;1.00
19033;DHT22;9649;51.042;13.804;2023-04-08T13:07:54;18.40;1.00
19033;DHT22;9649;51.042;13.804;2023-04-08T13:12:57;16.40;1.00
19033;DHT22;9649;51.042;13.804;2023-04-08T13:18:00;14.40;1.00
19033;DHT22;9649;51.042;13.804;2023-04-08T13:23:04;13.30;99.90
19033;DHT22;9649;51.042;13.804;2023-04-08T13:28:07;12.80;99.90
19033;DHT22;9649;51.042;13.804;2023-04-08T13:33:09;12.70;1.00
19033;DHT22;9649;51.042;13.804;2023-04-08T13:38:13;13.00;99.90
19033;DHT22;9649;51.042;13.804;2023-04-08T13:43:16;13.30;99.90
19033;DHT22;9649;51.042;13.804;2023-04-08T13:48:19;13.80;99.90
19033;DHT22;9649;51.042;13.804;2023-04-08T13:53:23;14.30;1.00
19033;DHT22;9649;51.042;13.804;2023-04-08T13:58:26;14.50;1.00
19033;DHT22;9649;51.042;13.804;2023-04-08T14:03:28;13.70;1.00
19033;DHT22;9649;51.042;13.804;2023-04-08T14:08:32;13.20;99.90
19033;DHT22;9649;51.042;13.804;2023-04-08T14:13:35;13.10;99.90
19033;DHT22;9649;51.042;13.804;2023-04-08T14:18:38;13.20;99.90
19033;DHT22;9649;51.042;13.804;2023-04-08T14:23:42;13.30;99.90
19033;DHT22;9649;51.042;13.804;2023-04-08T14:28:45;12.90;99.90
19033;DHT22;9649;51.042;13.804;2023-04-08T14:33:48;12.40;1.00
19033;DHT22;9649;51.042;13.804;2023-04-08T14:38:52;11.60;1.00
19033;DHT22;9649;51.042;13.804;2023-04-08T14:43:55;11.10;1.00
19033;DHT22;9649;51.042;13.804;2023-04-08T14:48:58;10.70;1.00
19033;DHT22;9649;51.042;13.804;2023-04-08T14:54:02;10.60;10.20
19033;DHT22;9649;51.042;13.804;2023-04-08T14:59:06;10.60;1.00
19033;DHT22;9649;51.042;13.804;2023-04-08T15:04:09;10.60;1.00
19033;DHT22;9649;51.042;13.804;2023-04-08T15:09:13;10.60;99.90
19033;DHT22;9649;51.042;13.804;2023-04-08T15:14:16;10.70;99.50
19033;DHT22;9649;51.042;13.804;2023-04-08T15:19:21;10.80;99.90
19033;DHT22;9649;51.042;13.804;2023-04-08T15:24:28;10.90;1.00
19033;DHT22;9649;51.042;13.804;2023-04-08T15:29:30;10.90;1.00
19033;DHT22;9649;51.042;13.804;2023-04-08T15:34:33;10.90;1.00
19033;DHT22;9649;51.042;13.804;2023-04-08T15:39:37;10.90;1.00
19033;DHT22;9649;51.042;13.804;2023-04-08T15:44:41;10.80;1.00
19033;DHT22;9649;51.042;13.804;2023-04-08T15:49:44;10.70;1.00
19033;DHT22;9649;51.042;13.804;2023-04-08T15:54:50;10.40;99.90
19033;DHT22;9649;51.042;13.804;2023-04-08T15:59:53;10.20;1.00
19033;DHT22;9649;51.042;13.804;2023-04-08T16:04:56;10.00;1.00
19033;DHT22;9649;51.042;13.804;2023-04-08T16:10:00;9.80;74.80
19033;DHT22;9649;51.042;13.804;2023-04-08T16:15:03;9.60;1.00
19033;DHT22;9649;51.042;13.804;2023-04-08T16:20:07;9.50;1.00
19033;DHT22;9649;51.042;13.804;2023-04-08T16:25:11;9.40;1.00
19033;DHT22;9649;51.042;13.804;2023-04-08T16:30:15;9.40;99.90
19033;DHT22;9649;51.042;13.804;2023-04-08T16:35:18;9.40;1.00
19033;DHT22;9649;51.042;13.804;2023-04-08T16:40:24;9.30;1.00
19033;DHT22;9649;51.042;13.804;2023-04-08T16:45:27;9.20;1.00
19033;DHT22;9649;51.042;13.804;2023-04-08T16:50:31;9.10;1.00
19033;DHT22;9649;51.042;13.804;2023-04-08T16:55:36;9.10;1.00
19033;DHT22;9649;51.042;13.804;2023-04-08T17:00:39;9.10;1.00
19033;DHT22;9649;51.042;13.804;2023-04-08T17:05:42;9.00;1.00
19033;DHT22;9649;51.042;13.804;2023-04-08T17:10:46;8.80;1.00
19033;DHT22;9649;51.042;13.804;2023-04-08T17:15:50;8.80;1.00
19033;DHT22;9649;51.042;13.804;2023-04-08T17:20:53;8.60;1.00
19033;DHT22;9649;51.042;13.804;2023-04-08T17:25:57;8.40;1.00
19033;DHT22;9649;51.042;13.804;2023-04-08T17:31:02;8.00;99.90
19033;DHT22;9649;51.042;13.804;2023-04-08T17:36:05;7.80;1.00
19033;DHT22;9649;51.042;13.804;2023-04-08T17:41:09;7.70;1.00
19033;DHT22;9649;51.042;13.804;2023-04-08T17:46:15;7.50;99.90
19033;DHT22;9649;51.042;13.804;2023-04-08T17:51:17;7.40;1.00
19033;DHT22;9649;51.042;13.804;2023-04-08T17:56:22;7.70;1.00
19033;DHT22;9649;51.042;13.804;2023-04-08T18:01:25;7.60;99.90
19033;DHT22;9649;51.042;13.804;2023-04-08T18:06:28;7.50;1.00
19033;DHT22;9649;51.042;13.804;2023-04-08T18:11:33;7.50;1.00
19033;DHT22;9649;51.042;13.804;2023-04-08T18:16:37;7.50;1.00
19033;DHT22;9649;51.042;13.804;2023-04-08T18:21:40;7.50;99.90
19033;DHT22;9649;51.042;13.804;2023-04-08T18:26:44;7.50;1.00
19033;DHT22;9649;51.042;13.804;2023-04-08T18:31:54;7.10;1.00
19033;DHT22;9649;51.042;13.804;2023-04-08T18:36:57;6.90;99.90
19033;DHT22;9649;51.042;13.804;2023-04-08T18:42:02;6.90;1.00
19033;DHT22;9649;51.042;13.804;2023-04-08T18:47:05;6.80;1.00
19033;DHT22;9649;51.042;13.804;2023-04-08T18:52:08;6.80;1.00
19033;DHT22;9649;51.042;13.804;2023-04-08T19:27:47;6.50;1.00
19033;DHT22;9649;51.042;13.804;2023-04-08T19:33:47;6.10;1.00
19033;DHT22;9649;51.042;13.804;2023-04-08T19:39:38;5.60;1.00
19033;DHT22;9649;51.042;13.804;2023-04-08T19:45:42;5.10;50.10
19033;DHT22;9649;51.042;13.804;2023-04-08T19:51:47;5.00;99.90
19033;DHT22;9649;51.042;13.804;2023-04-08T19:56:56;4.80;99.90
19033;DHT22;9649;51.042;13.804;2023-04-08T20:02:21;4.60;99.90
19033;DHT22;9649;51.042;13.804;2023-04-08T20:07:25;4.50;99.90
19033;DHT22;9649;51.042;13.804;2023-04-08T20:12:36;4.30;99.90
19033;DHT22;9649;51.042;13.804;2023-04-08T20:17:44;4.30;99.90
19033;DHT22;9649;51.042;13.804;2023-04-08T20:22:47;4.20;99.90
19033;DHT22;9649;51.042;13.804;2023-04-08T20:47:01;3.90;99.90
19033;DHT22;9649;51.042;13.804;2023-04-08T20:52:34;3.90;99.90
19033;DHT22;9649;51.042;13.804;2023-04-08T20:58:49;3.70;99.90
19033;DHT22;9649;51.042;13.804;2023-04-08T21:11:22;3.30;99.90
19033;DHT22;9649;51.042;13.804;2023-04-08T21:17:20;3.20;99.90
19033;DHT22;9649;51.042;13.804;2023-04-08T22:41:04;2.10;99.90
19033;DHT22;9649;51.042;13.804;2023-04-08T22:47:05;2.00;99.90
19033;DHT22;9649;51.042;13.804;2023-04-08T22:59:27;1.80;99.90
19033;DHT22;9649;51.042;13.804;2023-04-08T23:18:06;1.60;99.90
19033;DHT22;9649;51.042;13.804;2023-04-08T23:23:49;1.70;99.90
19033;DHT22;9649;51.042;13.804;2023-04-08T23:29:54;1.80;99.90
19033;DHT22;9649;51.042;13.804;2023-04-08T23:42:39;2.30;99.90
19033;DHT22;9649;51.042;13.804;2023-04-08T23:48:25;2.40;99.90
19033;DHT22;9649;51.042;13.804;2023-04-08T23:54:51;2.30;99.90
